createdAt,value
2019-02-21T00:04:41.936Z,64.10
2019-02-21T00:09:33.577Z,64.50
2019-02-21T00:14:25.212Z,64.50
2019-02-21T00:19:16.854Z,63.30
2019-02-21T00:24:07.772Z,63.30
2019-02-21T00:28:59.417Z,63.40
2019-02-21T00:33:50.317Z,63.40
2019-02-21T00:38:41.967Z,64.10
2019-02-21T00:43:32.883Z,64.10
2019-02-21T00:48:23.781Z,64.30
2019-02-21T00:53:15.418Z,64.20
2019-02-21T00:58:07.125Z,63.40
2019-02-21T01:02:58.024Z,63.30
2019-02-21T01:07:48.917Z,63.40
2019-02-21T01:12:39.859Z,63.90
2019-02-21T01:17:30.778Z,64.20
2019-02-21T01:22:21.687Z,64.60
2019-02-21T01:27:12.625Z,64.70
2019-02-21T01:32:03.539Z,65.00
2019-02-21T01:36:54.463Z,63.80
2019-02-21T01:41:45.375Z,63.00
2019-02-21T01:46:36.287Z,63.40
2019-02-21T01:51:27.212Z,63.90
2019-02-21T01:56:18.350Z,64.30
2019-02-21T02:01:09.278Z,64.60
2019-02-21T02:06:00.187Z,64.80
2019-02-21T02:10:51.092Z,64.70
2019-02-21T02:15:42.040Z,63.50
2019-02-21T02:20:32.961Z,63.20
2019-02-21T02:25:23.868Z,63.60
2019-02-21T02:30:14.806Z,63.90
2019-02-21T02:35:05.712Z,64.30
2019-02-21T02:39:56.639Z,64.50
2019-02-21T02:44:47.548Z,64.80
2019-02-21T02:49:38.474Z,64.60
2019-02-21T02:54:29.387Z,63.60
2019-02-21T02:59:20.290Z,63.50
2019-02-21T03:04:11.220Z,63.70
2019-02-21T03:09:02.127Z,64.00
2019-02-21T03:13:53.047Z,64.40
2019-02-21T03:18:43.947Z,64.70
2019-02-21T03:23:35.604Z,64.10
2019-02-21T03:28:26.523Z,64.10
2019-02-21T03:33:17.433Z,63.40
2019-02-21T03:38:08.339Z,63.50
2019-02-21T03:42:59.982Z,64.30
2019-02-21T03:47:50.892Z,64.30
2019-02-21T03:52:42.555Z,64.80
2019-02-21T03:57:33.527Z,64.70
2019-02-21T04:02:24.433Z,64.70
2019-02-21T04:07:15.334Z,63.60
2019-02-21T04:12:06.264Z,63.40
2019-02-21T04:16:57.188Z,63.70
2019-02-21T04:21:49.585Z,64.50
2019-02-21T04:26:40.505Z,64.50
2019-02-21T04:31:31.415Z,64.70
2019-02-21T04:36:23.550Z,65.00
2019-02-21T04:41:13.325Z,64.20
2019-02-21T04:46:04.243Z,63.50
2019-02-21T04:50:55.176Z,63.50
2019-02-21T04:55:46.835Z,64.40
2019-02-21T05:00:37.751Z,64.40
2019-02-21T05:05:28.671Z,64.70
2019-02-21T05:10:19.578Z,64.90
2019-02-21T05:15:13.943Z,63.70
2019-02-21T05:20:02.145Z,63.60
2019-02-21T05:24:53.074Z,63.40
2019-02-21T05:29:44.005Z,63.70
2019-02-21T05:34:35.514Z,64.30
2019-02-21T05:39:30.413Z,64.60
2019-02-21T05:44:20.244Z,64.90
2019-02-21T05:49:16.033Z,65.40
2019-02-21T05:54:12.755Z,64.50
2019-02-21T05:59:02.817Z,63.80
2019-02-21T06:03:58.660Z,63.90
2019-02-21T06:08:55.791Z,64.30
2019-02-21T06:13:49.356Z,65.20
2019-02-21T06:18:40.291Z,65.20
2019-02-21T06:23:31.947Z,65.40
2019-02-21T06:28:23.699Z,65.40
2019-02-21T06:33:14.627Z,64.10
2019-02-21T06:38:05.561Z,64.00
2019-02-21T06:42:56.474Z,64.30
2019-02-21T06:47:47.390Z,64.70
2019-02-21T06:52:40.568Z,65.00
2019-02-21T06:57:29.246Z,65.40
2019-02-21T07:02:20.166Z,65.80
2019-02-21T07:07:11.086Z,64.70
2019-02-21T07:12:02.014Z,64.00
2019-02-21T07:16:52.927Z,64.40
2019-02-21T07:21:43.836Z,64.80
2019-02-21T07:26:34.755Z,65.20
2019-02-21T07:31:29.107Z,65.50
2019-02-21T07:36:16.617Z,65.80
2019-02-21T07:41:08.314Z,64.70
2019-02-21T07:45:59.212Z,64.60
2019-02-21T07:50:50.126Z,64.40
2019-02-21T07:55:41.036Z,64.80
2019-02-21T08:00:31.975Z,65.30
2019-02-21T08:05:23.690Z,65.50
2019-02-21T08:10:13.849Z,65.70
2019-02-21T08:15:05.506Z,65.20
2019-02-21T08:20:07.466Z,64.50
2019-02-21T08:24:48.106Z,64.50
2019-02-21T08:29:39.147Z,64.70
2019-02-21T08:34:32.083Z,65.20
2019-02-21T08:39:23.019Z,66.00
2019-02-21T08:44:13.943Z,66.00
2019-02-21T08:49:04.878Z,66.30
2019-02-21T08:53:56.531Z,65.40
2019-02-21T08:58:47.470Z,65.20
2019-02-21T09:03:38.397Z,64.90
2019-02-21T09:08:33.677Z,65.40
2019-02-21T09:13:20.255Z,65.80
2019-02-21T09:18:11.163Z,66.20
2019-02-21T09:23:02.072Z,66.60
2019-02-21T09:27:52.993Z,66.90
2019-02-21T09:32:43.909Z,65.70
2019-02-21T09:37:34.874Z,64.80
2019-02-21T09:42:25.797Z,65.10
2019-02-21T09:47:16.702Z,65.70
2019-02-21T09:52:07.627Z,65.80
2019-02-21T09:56:58.535Z,66.70
2019-02-21T10:01:49.463Z,67.20
2019-02-21T10:06:40.398Z,66.60
2019-02-21T10:11:32.056Z,65.70
2019-02-21T10:16:22.967Z,65.70
2019-02-21T10:21:13.925Z,66.20
2019-02-21T10:26:04.844Z,66.40
2019-02-21T10:30:55.753Z,66.80
2019-02-21T10:35:47.268Z,66.80
2019-02-21T10:40:38.187Z,67.00
2019-02-21T10:45:29.098Z,65.70
2019-02-21T10:50:20.015Z,65.30
2019-02-21T10:55:10.958Z,65.50
2019-02-21T11:00:01.860Z,65.90
2019-02-21T11:04:55.098Z,66.00
2019-02-21T11:09:43.723Z,66.30
2019-02-21T11:14:34.626Z,65.80
2019-02-21T11:19:25.542Z,64.60
2019-02-21T11:24:16.465Z,64.20
2019-02-21T11:29:07.376Z,64.50
2019-02-21T11:33:58.296Z,64.80
2019-02-21T11:38:49.219Z,64.90
2019-02-21T11:43:40.135Z,65.10
2019-02-21T11:48:31.042Z,65.30
2019-02-21T11:53:21.961Z,64.20
2019-02-21T11:58:12.879Z,63.50
2019-02-21T12:03:03.828Z,63.90
2019-02-21T12:07:54.743Z,64.10
2019-02-21T12:12:45.647Z,64.40
2019-02-21T12:17:36.559Z,64.20
2019-02-21T12:22:27.462Z,64.20
2019-02-21T12:27:19.111Z,63.30
2019-02-21T12:32:10.015Z,63.30
2019-02-21T12:37:01.789Z,63.90
2019-02-21T12:41:52.617Z,63.80
2019-02-21T12:46:45.557Z,64.00
2019-02-21T12:51:34.479Z,63.80
2019-02-21T12:56:25.403Z,63.50
2019-02-21T13:01:16.310Z,61.70
2019-02-21T13:06:07.223Z,62.30
2019-02-21T13:10:58.139Z,62.30
2019-02-21T13:15:49.068Z,62.70
2019-02-21T13:20:40.002Z,62.70
2019-02-21T13:25:30.943Z,63.10
2019-02-21T13:30:22.589Z,61.80
2019-02-21T13:35:13.512Z,61.80
2019-02-21T13:40:04.424Z,62.30
2019-02-21T13:44:56.079Z,62.80
2019-02-21T13:49:47.022Z,62.80
2019-02-21T13:54:37.943Z,63.00
2019-02-21T13:59:28.863Z,62.30
2019-02-21T14:04:19.799Z,61.90
2019-02-21T14:09:10.730Z,62.50
2019-02-21T14:14:01.655Z,62.90
2019-02-21T14:18:52.574Z,63.20
2019-02-21T14:23:51.305Z,63.60
2019-02-21T14:28:42.224Z,63.60
2019-02-21T14:33:40.171Z,62.80
2019-02-21T14:38:31.831Z,63.40
2019-02-21T14:43:23.769Z,63.90
2019-02-21T14:48:15.462Z,64.00
2019-02-21T14:53:06.394Z,64.00
2019-02-21T14:57:58.787Z,63.30
2019-02-21T15:02:49.703Z,63.30
2019-02-21T15:07:41.364Z,63.50
2019-02-21T15:12:35.451Z,63.60
2019-02-21T15:17:23.223Z,63.90
2019-02-21T15:22:14.155Z,64.30
2019-02-21T15:27:08.398Z,64.70
2019-02-21T15:31:56.057Z,63.90
2019-02-21T15:36:46.974Z,63.40
2019-02-21T15:41:37.915Z,63.70
2019-02-21T15:46:28.843Z,64.10
2019-02-21T15:51:19.758Z,64.50
2019-02-21T15:56:10.674Z,64.90
2019-02-21T16:01:01.586Z,64.80
2019-02-21T16:05:52.495Z,64.00
2019-02-21T16:10:43.406Z,64.00
2019-02-21T16:15:34.314Z,64.30
2019-02-21T16:20:25.242Z,64.70
2019-02-21T16:25:19.022Z,65.10
2019-02-21T16:30:09.922Z,65.20
2019-02-21T16:35:01.577Z,64.20
2019-02-21T16:39:52.482Z,64.20
2019-02-21T16:44:44.140Z,64.40
2019-02-21T16:49:35.047Z,64.40
2019-02-21T16:54:25.973Z,64.80
2019-02-21T16:59:16.884Z,65.20
2019-02-21T17:04:07.810Z,65.50
2019-02-21T17:08:58.731Z,64.50
2019-02-21T17:13:49.642Z,64.10
2019-02-21T17:18:40.557Z,64.40
2019-02-21T17:23:31.462Z,64.80
2019-02-21T17:28:23.121Z,65.50
2019-02-21T17:33:14.035Z,65.50
2019-02-21T17:38:04.964Z,65.40
2019-02-21T17:42:55.871Z,64.60
2019-02-21T17:47:46.787Z,64.60
2019-02-21T17:52:37.699Z,65.00
2019-02-21T17:57:28.658Z,65.70
2019-02-21T18:02:19.570Z,66.00
2019-02-21T18:07:10.535Z,66.60
2019-02-21T18:12:02.183Z,65.50
2019-02-21T18:16:53.858Z,65.90
2019-02-21T18:21:44.782Z,65.90
2019-02-21T18:26:35.717Z,66.10
2019-02-21T18:31:26.627Z,66.40
2019-02-21T18:36:17.539Z,66.70
2019-02-21T18:41:08.482Z,67.00
2019-02-21T18:45:59.405Z,65.90
2019-02-21T18:50:50.331Z,66.20
2019-02-21T18:55:41.251Z,66.20
2019-02-21T19:00:32.159Z,66.40
2019-02-21T19:05:34.773Z,67.90
2019-02-21T19:10:16.527Z,68.40
2019-02-21T19:15:07.479Z,66.70
2019-02-21T19:19:58.399Z,65.70
2019-02-21T19:24:49.321Z,65.80
2019-02-21T19:29:40.223Z,66.20
2019-02-21T19:34:31.131Z,67.50
2019-02-21T19:39:22.044Z,67.80
2019-02-21T19:44:12.962Z,68.10
2019-02-21T19:49:03.887Z,66.60
2019-02-21T19:53:54.849Z,66.00
2019-02-21T19:58:46.484Z,68.10
2019-02-21T20:03:38.147Z,68.50
2019-02-21T20:08:29.252Z,68.40
2019-02-21T20:13:20.886Z,69.00
2019-02-21T20:18:12.543Z,67.10
2019-02-21T20:23:03.450Z,67.10
2019-02-21T20:27:54.365Z,67.00
2019-02-21T20:32:46.012Z,68.10
2019-02-21T20:37:36.923Z,68.00
2019-02-21T20:42:27.848Z,68.70
2019-02-21T20:47:18.817Z,69.10
2019-02-21T20:52:09.739Z,69.30
2019-02-21T20:57:00.649Z,66.90
2019-02-21T21:01:51.579Z,67.20
2019-02-21T21:06:42.491Z,68.80
2019-02-21T21:11:33.416Z,69.00
2019-02-21T21:16:24.341Z,69.60
2019-02-21T21:21:15.991Z,69.60
2019-02-21T21:26:07.727Z,67.30
2019-02-21T21:30:59.387Z,66.80
2019-02-21T21:35:50.287Z,66.80
2019-02-21T21:40:41.951Z,68.90
2019-02-21T21:45:32.866Z,68.90
2019-02-21T21:50:23.858Z,69.00
2019-02-21T21:55:14.718Z,69.80
2019-02-21T22:00:05.634Z,69.60
2019-02-21T22:04:56.555Z,67.30
2019-02-21T22:09:47.543Z,67.00
2019-02-21T22:14:39.195Z,68.80
2019-02-21T22:19:30.103Z,68.70
2019-02-21T22:24:21.754Z,69.10
2019-02-21T22:29:12.654Z,69.10
2019-02-21T22:34:04.299Z,66.90
2019-02-21T22:38:55.276Z,66.90
2019-02-21T22:43:46.189Z,66.60
2019-02-21T22:48:47.022Z,68.50
2019-02-21T22:53:28.787Z,70.00
2019-02-21T22:58:19.703Z,69.40
2019-02-21T23:03:11.366Z,69.40
2019-02-21T23:08:02.268Z,69.40
2019-02-21T23:12:53.180Z,67.00
2019-02-21T23:17:44.111Z,66.40
2019-02-21T23:22:35.015Z,67.80
2019-02-21T23:27:25.943Z,68.40
2019-02-21T23:32:16.860Z,68.70
2019-02-21T23:37:07.775Z,69.10
2019-02-21T23:41:58.999Z,69.40
2019-02-21T23:46:50.685Z,66.50
2019-02-21T23:51:41.595Z,66.50
2019-02-21T23:56:32.502Z,67.80
